• Join FlightAware (Why Join?)
  • Login
  • US Flag 
07:22AM EDT


 

Airport Tracker/Info


-or-


 

Live Flight TrackerFlight Track Log ✈ EJA396 ✈ 11-Jun-2013 ✈ KTOA - KOXR

Flight Track Log - Related Links

Times and Time Zones

All times are in EDT time to prevent confusion due to time zone crossing. See the EJA396 flight status page for this flight to view local times or setup timezone preferences in your user account.

Time Position Orientation Groundspeed Altitude Reporting Facility
EDT Latitude Longitude Course Direction KTS MPH feet Rate Location/Type
12:47PM 33.8228 -118.3672 282° West 164 189 1,800  Level Los Angeles Center
12:48PM 33.8331 -118.4250 282° West 207 238 2,900 540 Climbing Los Angeles Center
12:49PM 33.8253 -118.5036 263° West 216 249 3,000 660 Climbing Los Angeles Center
12:50PM 33.8175 -118.5786 263° West 211 243 4,300 2,520 Climbing Los Angeles Center
12:51PM 33.8089 -118.6589 263° West 246 283 8,300 3,780 Climbing Los Angeles Center
12:52PM 33.8028 -118.7489 265° West 253 291 12,200 2,580 Climbing Los Angeles Center
12:53PM 33.8608 -118.8431 307° West 350 403 13,700 2,580 Climbing Los Angeles Center
12:54PM 33.9331 -118.9475 310° West 374 430 17,600 3,240 Climbing Los Angeles Center
12:55PM 33.9989 -119.0411 310° West 369 425 20,400 2,400 Climbing Los Angeles Center
12:56PM 34.0733 -119.1469 310° West 384 442 22,600 1,920 Climbing Los Angeles Center
12:57PM 34.1397 -119.2419 310° West 402 463 24,400 1,860 Climbing Los Angeles Center
12:59PM 34.2133 -119.3489 310° West 411 473 26,500 1,860 Climbing Los Angeles Center
01:00PM 34.2903 -119.4581 310° West 422 486 28,300 1,860 Climbing Los Angeles Center
01:01PM 34.3808 -119.5892 310° West 425 489 30,400 1,740 Climbing Los Angeles Center
01:02PM 34.4572 -119.6989 310° West 425 489 31,900 720 Climbing Los Angeles Center
01:03PM 34.5450 -119.8008 316° Northwest 451 519 32,000  Climbing Los Angeles Center
01:04PM 34.6500 -119.8875 326° Northwest 460 529 32,000  Level Los Angeles Center
01:05PM 34.7483 -119.9692 326° Northwest 434 499 32,000  Level Los Angeles Center
01:06PM 34.8553 -120.0578 326° Northwest 392 451 32,000  Level Los Angeles Center
01:07PM 34.9344 -120.1219 326° Northwest 371 427 32,000 -60 Level Los Angeles Center
01:08PM 35.0133 -120.1903 325° Northwest 358 412 31,900 -1,260 Descending Los Angeles Center
01:09PM 35.0019 -120.2786 261° West 308 354 29,400 -2,460 Descending Los Angeles Center
01:10PM 34.9217 -120.2386 158° South 333 383 26,900 -2,640 Descending Los Angeles Center
01:11PM 34.8394 -120.1411 136° Southeast 342 394 24,000 -1,440 Descending Los Angeles Center
01:12PM 34.7719 -120.0600 135° Southeast 326 375 24,000 -300 Level Los Angeles Center
01:13PM 34.7067 -119.9881 138° Southeast 321 369 23,400 -1,440 Descending Los Angeles Center
01:14PM 34.6364 -119.9111 138° Southeast 338 389 21,100 -2,280 Descending Los Angeles Center
01:15PM 34.5719 -119.8397 138° Southeast 321 369 18,700 -2,520 Descending Los Angeles Center
01:16PM 34.5103 -119.7706 137° Southeast 307 353 15,900 -3,000 Descending Los Angeles Center
01:17PM 34.4619 -119.6822 124° Southeast 316 364 12,600 -2,400 Descending Los Angeles Center
01:18PM 34.4064 -119.5808 124° Southeast 304 350 11,000 -960 Descending Los Angeles Center
01:19PM 34.3586 -119.4953 124° Southeast 305 351 10,700 -900 Descending Los Angeles Center
01:20PM 34.3094 -119.4017 122° Southeast 316 364 9,200 -1,260 Descending Los Angeles Center
01:21PM 34.2956 -119.3700 118° Southeast 306 352 9,000 -240 Descending Los Angeles Center
01:21PM 34.2619 -119.3139 126° Southeast 290 334 9,000  Level Los Angeles Center
01:22PM 34.2397 -119.2733 124° Southeast 278 320 9,000 -540 Level Los Angeles Center
01:22PM 34.2153 -119.2461 137° Southeast 270 311 8,500 -1,500 Descending Los Angeles Center
01:23PM 34.1914 -119.2214 139° Southeast 216 249 7,500 -2,100 Descending Los Angeles Center
01:23PM 34.1775 -119.1856 115° Southeast 223 257 6,300 -2,340 Descending Los Angeles Center
01:24PM 34.1772 -119.1661 91° East 214 246 5,600 -1,980 Descending Los Angeles Center
01:24PM 34.1731 -119.1231 97° East 220 253 4,300 -2,640 Descending Los Angeles Center
01:25PM 34.1994 -119.1017 34° Northeast 213 245 2,400 -2,220 Descending Los Angeles Center
01:26PM 34.1997 -119.1614 270° West 142 163 800 -1,500 Descending Los Angeles Center
01:28PM 34.2000 -119.2000 309° West  Level FlightAware Approximate
01:35PM 34.2008 -119.2072 309° West  Level Estimated